sensor_id;sensor_type;location;lat;lon;timestamp;P1;durP1;ratioP1;P2;durP2;ratioP2
74415;SDS011;62850;42.428;25.618;2024-03-02T00:02:24;36.38;;;15.45;;
74415;SDS011;62850;42.428;25.618;2024-03-02T00:04:50;35.97;;;15.82;;
74415;SDS011;62850;42.428;25.618;2024-03-02T00:07:16;39.45;;;16.00;;
74415;SDS011;62850;42.428;25.618;2024-03-02T00:09:42;34.20;;;14.32;;
74415;SDS011;62850;42.428;25.618;2024-03-02T00:12:08;38.72;;;15.55;;
74415;SDS011;62850;42.428;25.618;2024-03-02T00:14:36;37.60;;;15.43;;
74415;SDS011;62850;42.428;25.618;2024-03-02T00:17:02;36.30;;;14.52;;
74415;SDS011;62850;42.428;25.618;2024-03-02T00:19:27;43.08;;;15.80;;
74415;SDS011;62850;42.428;25.618;2024-03-02T00:21:53;42.10;;;15.43;;
74415;SDS011;62850;42.428;25.618;2024-03-02T00:24:32;42.55;;;16.33;;
74415;SDS011;62850;42.428;25.618;2024-03-02T00:26:59;41.35;;;16.33;;
74415;SDS011;62850;42.428;25.618;2024-03-02T00:29:26;42.80;;;16.55;;
74415;SDS011;62850;42.428;25.618;2024-03-02T00:31:53;47.00;;;17.58;;
74415;SDS011;62850;42.428;25.618;2024-03-02T00:34:19;47.28;;;19.17;;
74415;SDS011;62850;42.428;25.618;2024-03-02T00:36:44;53.22;;;20.05;;
74415;SDS011;62850;42.428;25.618;2024-03-02T00:39:11;48.45;;;17.25;;
74415;SDS011;62850;42.428;25.618;2024-03-02T00:41:38;48.85;;;18.40;;
74415;SDS011;62850;42.428;25.618;2024-03-02T00:44:07;46.47;;;19.02;;
74415;SDS011;62850;42.428;25.618;2024-03-02T00:46:39;43.95;;;18.75;;
74415;SDS011;62850;42.428;25.618;2024-03-02T00:49:17;49.03;;;17.30;;
74415;SDS011;62850;42.428;25.618;2024-03-02T00:51:46;43.53;;;18.58;;
74415;SDS011;62850;42.428;25.618;2024-03-02T00:54:14;49.40;;;18.70;;
74415;SDS011;62850;42.428;25.618;2024-03-02T00:56:40;44.38;;;18.17;;
74415;SDS011;62850;42.428;25.618;2024-03-02T00:59:06;44.47;;;16.88;;
74415;SDS011;62850;42.428;25.618;2024-03-02T01:01:33;52.10;;;19.58;;
74415;SDS011;62850;42.428;25.618;2024-03-02T01:03:59;49.58;;;19.48;;
74415;SDS011;62850;42.428;25.618;2024-03-02T01:06:24;45.42;;;17.38;;
74415;SDS011;62850;42.428;25.618;2024-03-02T01:08:50;42.45;;;16.65;;
74415;SDS011;62850;42.428;25.618;2024-03-02T01:11:16;48.20;;;17.35;;
74415;SDS011;62850;42.428;25.618;2024-03-02T01:13:43;44.10;;;16.33;;
74415;SDS011;62850;42.428;25.618;2024-03-02T01:16:09;46.03;;;17.20;;
74415;SDS011;62850;42.428;25.618;2024-03-02T01:18:34;47.05;;;18.63;;
74415;SDS011;62850;42.428;25.618;2024-03-02T01:20:59;46.13;;;16.70;;
74415;SDS011;62850;42.428;25.618;2024-03-02T01:23:25;40.30;;;16.67;;
74415;SDS011;62850;42.428;25.618;2024-03-02T01:25:51;45.08;;;17.08;;
74415;SDS011;62850;42.428;25.618;2024-03-02T01:28:17;47.03;;;17.15;;
74415;SDS011;62850;42.428;25.618;2024-03-02T01:30:44;46.95;;;17.90;;
74415;SDS011;62850;42.428;25.618;2024-03-02T01:33:09;39.50;;;17.20;;
74415;SDS011;62850;42.428;25.618;2024-03-02T01:35:34;41.95;;;16.50;;
74415;SDS011;62850;42.428;25.618;2024-03-02T01:38:00;47.10;;;17.77;;
74415;SDS011;62850;42.428;25.618;2024-03-02T01:40:26;48.30;;;17.33;;
74415;SDS011;62850;42.428;25.618;2024-03-02T01:42:52;43.25;;;18.23;;
74415;SDS011;62850;42.428;25.618;2024-03-02T01:45:28;49.53;;;18.48;;
74415;SDS011;62850;42.428;25.618;2024-03-02T01:47:53;52.97;;;19.30;;
74415;SDS011;62850;42.428;25.618;2024-03-02T01:50:28;43.55;;;17.60;;
74415;SDS011;62850;42.428;25.618;2024-03-02T01:52:55;43.22;;;16.88;;
74415;SDS011;62850;42.428;25.618;2024-03-02T01:55:21;48.67;;;18.48;;
74415;SDS011;62850;42.428;25.618;2024-03-02T01:57:47;41.95;;;16.35;;
74415;SDS011;62850;42.428;25.618;2024-03-02T02:00:13;39.92;;;16.27;;
74415;SDS011;62850;42.428;25.618;2024-03-02T02:02:39;46.50;;;18.52;;
74415;SDS011;62850;42.428;25.618;2024-03-02T02:05:05;43.78;;;17.58;;
74415;SDS011;62850;42.428;25.618;2024-03-02T02:07:31;45.55;;;18.23;;
74415;SDS011;62850;42.428;25.618;2024-03-02T02:09:57;48.25;;;16.65;;
74415;SDS011;62850;42.428;25.618;2024-03-02T02:12:22;41.15;;;17.20;;
74415;SDS011;62850;42.428;25.618;2024-03-02T02:14:48;41.72;;;16.20;;
74415;SDS011;62850;42.428;25.618;2024-03-02T02:17:17;45.22;;;16.58;;
74415;SDS011;62850;42.428;25.618;2024-03-02T02:19:42;39.78;;;16.45;;
74415;SDS011;62850;42.428;25.618;2024-03-02T02:22:08;45.25;;;18.52;;
74415;SDS011;62850;42.428;25.618;2024-03-02T02:24:42;44.78;;;15.82;;
74415;SDS011;62850;42.428;25.618;2024-03-02T02:27:08;38.20;;;16.95;;
74415;SDS011;62850;42.428;25.618;2024-03-02T02:29:35;48.25;;;16.80;;
74415;SDS011;62850;42.428;25.618;2024-03-02T02:32:01;41.83;;;17.25;;
74415;SDS011;62850;42.428;25.618;2024-03-02T02:34:26;39.45;;;15.23;;
74415;SDS011;62850;42.428;25.618;2024-03-02T02:36:51;39.88;;;15.77;;
74415;SDS011;62850;42.428;25.618;2024-03-02T02:39:18;40.13;;;15.90;;
74415;SDS011;62850;42.428;25.618;2024-03-02T02:41:46;39.78;;;16.45;;
74415;SDS011;62850;42.428;25.618;2024-03-02T02:44:11;38.17;;;15.32;;
74415;SDS011;62850;42.428;25.618;2024-03-02T02:46:38;36.38;;;14.27;;
74415;SDS011;62850;42.428;25.618;2024-03-02T02:49:04;39.03;;;16.00;;
74415;SDS011;62850;42.428;25.618;2024-03-02T02:51:29;33.30;;;15.00;;
74415;SDS011;62850;42.428;25.618;2024-03-02T02:53:55;35.38;;;15.25;;
74415;SDS011;62850;42.428;25.618;2024-03-02T02:56:20;40.45;;;14.45;;
74415;SDS011;62850;42.428;25.618;2024-03-02T02:58:46;34.28;;;14.10;;
74415;SDS011;62850;42.428;25.618;2024-03-02T03:01:11;38.15;;;16.27;;
74415;SDS011;62850;42.428;25.618;2024-03-02T03:03:36;35.70;;;14.90;;
74415;SDS011;62850;42.428;25.618;2024-03-02T03:06:02;38.53;;;15.88;;
74415;SDS011;62850;42.428;25.618;2024-03-02T03:08:28;34.92;;;15.23;;
74415;SDS011;62850;42.428;25.618;2024-03-02T03:10:53;37.55;;;14.68;;
74415;SDS011;62850;42.428;25.618;2024-03-02T03:13:19;41.80;;;14.50;;
74415;SDS011;62850;42.428;25.618;2024-03-02T03:15:45;42.97;;;16.08;;
74415;SDS011;62850;42.428;25.618;2024-03-02T03:18:10;37.63;;;14.98;;
74415;SDS011;62850;42.428;25.618;2024-03-02T03:20:36;38.70;;;15.10;;
74415;SDS011;62850;42.428;25.618;2024-03-02T03:23:01;35.03;;;16.40;;
74415;SDS011;62850;42.428;25.618;2024-03-02T03:25:29;39.50;;;15.63;;
74415;SDS011;62850;42.428;25.618;2024-03-02T03:27:54;34.10;;;15.13;;
74415;SDS011;62850;42.428;25.618;2024-03-02T03:30:20;36.10;;;14.32;;
74415;SDS011;62850;42.428;25.618;2024-03-02T03:32:45;37.90;;;14.73;;
74415;SDS011;62850;42.428;25.618;2024-03-02T03:35:13;42.28;;;15.07;;
74415;SDS011;62850;42.428;25.618;2024-03-02T03:37:40;34.03;;;15.38;;
74415;SDS011;62850;42.428;25.618;2024-03-02T03:40:05;39.25;;;15.48;;
74415;SDS011;62850;42.428;25.618;2024-03-02T03:42:35;37.38;;;14.90;;
74415;SDS011;62850;42.428;25.618;2024-03-02T03:45:04;34.65;;;13.60;;
74415;SDS011;62850;42.428;25.618;2024-03-02T03:47:33;31.33;;;14.65;;
74415;SDS011;62850;42.428;25.618;2024-03-02T03:49:58;33.47;;;15.63;;
74415;SDS011;62850;42.428;25.618;2024-03-02T03:52:24;32.90;;;14.32;;
74415;SDS011;62850;42.428;25.618;2024-03-02T03:54:49;37.40;;;15.18;;
74415;SDS011;62850;42.428;25.618;2024-03-02T03:57:16;33.35;;;14.10;;
74415;SDS011;62850;42.428;25.618;2024-03-02T03:59:41;35.80;;;15.18;;
74415;SDS011;62850;42.428;25.618;2024-03-02T04:02:07;30.27;;;13.82;;
74415;SDS011;62850;42.428;25.618;2024-03-02T04:04:34;33.65;;;14.88;;
74415;SDS011;62850;42.428;25.618;2024-03-02T04:06:59;34.50;;;14.35;;
74415;SDS011;62850;42.428;25.618;2024-03-02T04:09:25;37.00;;;14.60;;
74415;SDS011;62850;42.428;25.618;2024-03-02T04:11:50;30.63;;;13.25;;
74415;SDS011;62850;42.428;25.618;2024-03-02T04:14:16;32.78;;;14.52;;
74415;SDS011;62850;42.428;25.618;2024-03-02T04:16:42;34.22;;;14.27;;
74415;SDS011;62850;42.428;25.618;2024-03-02T04:19:07;32.33;;;14.32;;
74415;SDS011;62850;42.428;25.618;2024-03-02T04:21:33;34.22;;;14.48;;
74415;SDS011;62850;42.428;25.618;2024-03-02T04:23:58;33.65;;;14.65;;
74415;SDS011;62850;42.428;25.618;2024-03-02T04:26:24;34.88;;;14.40;;
74415;SDS011;62850;42.428;25.618;2024-03-02T04:28:53;36.53;;;14.98;;
74415;SDS011;62850;42.428;25.618;2024-03-02T04:31:19;33.88;;;14.80;;
74415;SDS011;62850;42.428;25.618;2024-03-02T04:33:44;34.40;;;14.98;;
74415;SDS011;62850;42.428;25.618;2024-03-02T04:36:10;35.47;;;13.90;;
74415;SDS011;62850;42.428;25.618;2024-03-02T04:38:36;33.75;;;12.57;;
74415;SDS011;62850;42.428;25.618;2024-03-02T04:41:03;30.05;;;14.05;;
74415;SDS011;62850;42.428;25.618;2024-03-02T04:43:31;34.10;;;13.68;;
74415;SDS011;62850;42.428;25.618;2024-03-02T04:45:57;36.25;;;14.45;;
74415;SDS011;62850;42.428;25.618;2024-03-02T04:48:23;32.33;;;12.98;;
74415;SDS011;62850;42.428;25.618;2024-03-02T04:50:49;33.10;;;13.98;;
74415;SDS011;62850;42.428;25.618;2024-03-02T04:53:14;34.10;;;13.55;;
74415;SDS011;62850;42.428;25.618;2024-03-02T04:55:39;34.65;;;12.70;;
74415;SDS011;62850;42.428;25.618;2024-03-02T04:58:05;36.40;;;13.57;;
74415;SDS011;62850;42.428;25.618;2024-03-02T05:00:31;33.42;;;13.23;;
74415;SDS011;62850;42.428;25.618;2024-03-02T05:02:57;32.75;;;13.38;;
74415;SDS011;62850;42.428;25.618;2024-03-02T05:05:22;32.45;;;13.85;;
74415;SDS011;62850;42.428;25.618;2024-03-02T05:07:48;31.30;;;12.55;;
74415;SDS011;62850;42.428;25.618;2024-03-02T05:10:13;31.58;;;12.45;;
74415;SDS011;62850;42.428;25.618;2024-03-02T05:12:39;32.00;;;13.90;;
74415;SDS011;62850;42.428;25.618;2024-03-02T05:15:08;31.38;;;13.05;;
74415;SDS011;62850;42.428;25.618;2024-03-02T05:17:37;34.08;;;12.70;;
74415;SDS011;62850;42.428;25.618;2024-03-02T05:20:04;29.83;;;13.15;;
74415;SDS011;62850;42.428;25.618;2024-03-02T05:22:33;31.40;;;12.77;;
74415;SDS011;62850;42.428;25.618;2024-03-02T05:24:59;32.13;;;13.25;;
74415;SDS011;62850;42.428;25.618;2024-03-02T05:27:25;30.08;;;13.35;;
74415;SDS011;62850;42.428;25.618;2024-03-02T05:29:51;36.20;;;13.45;;
74415;SDS011;62850;42.428;25.618;2024-03-02T05:32:17;40.10;;;15.48;;
74415;SDS011;62850;42.428;25.618;2024-03-02T05:34:42;34.92;;;13.98;;
74415;SDS011;62850;42.428;25.618;2024-03-02T05:37:08;35.53;;;14.05;;
74415;SDS011;62850;42.428;25.618;2024-03-02T05:39:33;33.63;;;13.63;;
74415;SDS011;62850;42.428;25.618;2024-03-02T05:41:59;39.03;;;14.32;;
74415;SDS011;62850;42.428;25.618;2024-03-02T05:44:24;42.28;;;16.85;;
74415;SDS011;62850;42.428;25.618;2024-03-02T05:46:50;35.92;;;14.50;;
74415;SDS011;62850;42.428;25.618;2024-03-02T05:49:15;33.75;;;12.88;;
74415;SDS011;62850;42.428;25.618;2024-03-02T05:51:41;37.92;;;14.35;;
74415;SDS011;62850;42.428;25.618;2024-03-02T05:54:06;41.67;;;15.60;;
74415;SDS011;62850;42.428;25.618;2024-03-02T05:56:32;36.17;;;14.30;;
74415;SDS011;62850;42.428;25.618;2024-03-02T05:58:57;34.03;;;13.30;;
74415;SDS011;62850;42.428;25.618;2024-03-02T06:04:04;31.38;;;11.95;;
74415;SDS011;62850;42.428;25.618;2024-03-02T06:06:29;29.15;;;11.75;;
74415;SDS011;62850;42.428;25.618;2024-03-02T06:08:55;28.02;;;11.32;;
74415;SDS011;62850;42.428;25.618;2024-03-02T06:11:20;25.20;;;11.23;;
74415;SDS011;62850;42.428;25.618;2024-03-02T06:13:45;27.52;;;11.70;;
74415;SDS011;62850;42.428;25.618;2024-03-02T06:16:11;25.83;;;10.90;;
74415;SDS011;62850;42.428;25.618;2024-03-02T06:18:37;26.45;;;11.68;;
74415;SDS011;62850;42.428;25.618;2024-03-02T06:21:02;27.95;;;12.02;;
74415;SDS011;62850;42.428;25.618;2024-03-02T06:23:28;28.63;;;12.07;;
74415;SDS011;62850;42.428;25.618;2024-03-02T06:25:54;30.40;;;12.38;;
74415;SDS011;62850;42.428;25.618;2024-03-02T06:28:19;31.17;;;12.63;;
74415;SDS011;62850;42.428;25.618;2024-03-02T06:30:45;28.45;;;13.00;;
74415;SDS011;62850;42.428;25.618;2024-03-02T06:33:11;27.98;;;10.60;;
74415;SDS011;62850;42.428;25.618;2024-03-02T06:35:36;25.90;;;12.23;;
74415;SDS011;62850;42.428;25.618;2024-03-02T06:38:02;25.45;;;11.52;;
74415;SDS011;62850;42.428;25.618;2024-03-02T06:40:27;27.67;;;11.50;;
74415;SDS011;62850;42.428;25.618;2024-03-02T06:42:53;34.63;;;13.98;;
74415;SDS011;62850;42.428;25.618;2024-03-02T06:45:18;32.55;;;13.85;;
74415;SDS011;62850;42.428;25.618;2024-03-02T06:47:44;30.52;;;12.43;;
74415;SDS011;62850;42.428;25.618;2024-03-02T06:50:09;31.25;;;12.63;;
74415;SDS011;62850;42.428;25.618;2024-03-02T06:52:35;31.58;;;13.10;;
74415;SDS011;62850;42.428;25.618;2024-03-02T06:55:01;31.83;;;13.48;;
74415;SDS011;62850;42.428;25.618;2024-03-02T06:57:27;32.13;;;12.32;;
74415;SDS011;62850;42.428;25.618;2024-03-02T06:59:52;32.78;;;13.35;;
74415;SDS011;62850;42.428;25.618;2024-03-02T07:02:20;34.38;;;14.45;;
74415;SDS011;62850;42.428;25.618;2024-03-02T07:04:46;40.70;;;13.25;;
74415;SDS011;62850;42.428;25.618;2024-03-02T07:07:12;32.53;;;13.40;;
74415;SDS011;62850;42.428;25.618;2024-03-02T07:09:37;33.03;;;13.90;;
74415;SDS011;62850;42.428;25.618;2024-03-02T07:12:03;36.75;;;12.63;;
74415;SDS011;62850;42.428;25.618;2024-03-02T07:14:28;25.27;;;12.15;;
74415;SDS011;62850;42.428;25.618;2024-03-02T07:17:14;26.63;;;10.48;;
74415;SDS011;62850;42.428;25.618;2024-03-02T07:19:40;21.88;;;10.60;;
74415;SDS011;62850;42.428;25.618;2024-03-02T07:22:06;24.60;;;10.27;;
74415;SDS011;62850;42.428;25.618;2024-03-02T07:24:38;25.25;;;10.38;;
74415;SDS011;62850;42.428;25.618;2024-03-02T07:27:04;22.50;;;10.13;;
74415;SDS011;62850;42.428;25.618;2024-03-02T07:29:30;21.58;;;10.02;;
74415;SDS011;62850;42.428;25.618;2024-03-02T07:31:56;22.45;;;10.20;;
74415;SDS011;62850;42.428;25.618;2024-03-02T07:34:21;24.73;;;10.55;;
74415;SDS011;62850;42.428;25.618;2024-03-02T07:36:46;26.73;;;11.10;;
74415;SDS011;62850;42.428;25.618;2024-03-02T07:39:12;30.35;;;11.77;;
74415;SDS011;62850;42.428;25.618;2024-03-02T07:41:37;25.13;;;10.60;;
74415;SDS011;62850;42.428;25.618;2024-03-02T07:44:03;26.08;;;11.15;;
74415;SDS011;62850;42.428;25.618;2024-03-02T07:46:28;25.42;;;11.55;;
74415;SDS011;62850;42.428;25.618;2024-03-02T07:48:54;24.67;;;12.55;;
74415;SDS011;62850;42.428;25.618;2024-03-02T07:51:19;29.05;;;12.82;;
74415;SDS011;62850;42.428;25.618;2024-03-02T07:53:45;29.10;;;12.68;;
74415;SDS011;62850;42.428;25.618;2024-03-02T07:56:11;26.00;;;12.88;;
74415;SDS011;62850;42.428;25.618;2024-03-02T07:58:37;27.75;;;13.50;;
74415;SDS011;62850;42.428;25.618;2024-03-02T08:01:03;26.83;;;13.02;;
74415;SDS011;62850;42.428;25.618;2024-03-02T08:03:28;27.13;;;12.43;;
74415;SDS011;62850;42.428;25.618;2024-03-02T08:05:54;33.47;;;14.95;;
74415;SDS011;62850;42.428;25.618;2024-03-02T08:08:19;29.17;;;13.13;;
74415;SDS011;62850;42.428;25.618;2024-03-02T08:10:45;29.70;;;14.00;;
74415;SDS011;62850;42.428;25.618;2024-03-02T08:13:10;31.52;;;14.48;;
74415;SDS011;62850;42.428;25.618;2024-03-02T08:15:36;32.00;;;15.48;;
74415;SDS011;62850;42.428;25.618;2024-03-02T08:18:01;30.60;;;14.65;;
74415;SDS011;62850;42.428;25.618;2024-03-02T08:20:27;34.90;;;14.80;;
74415;SDS011;62850;42.428;25.618;2024-03-02T08:22:52;32.75;;;15.07;;
74415;SDS011;62850;42.428;25.618;2024-03-02T08:25:20;31.27;;;14.32;;
74415;SDS011;62850;42.428;25.618;2024-03-02T08:27:46;27.85;;;14.70;;
74415;SDS011;62850;42.428;25.618;2024-03-02T08:30:11;33.25;;;16.05;;
74415;SDS011;62850;42.428;25.618;2024-03-02T08:32:37;32.45;;;15.55;;
74415;SDS011;62850;42.428;25.618;2024-03-02T08:35:03;28.70;;;14.30;;
74415;SDS011;62850;42.428;25.618;2024-03-02T08:37:29;29.10;;;14.55;;
74415;SDS011;62850;42.428;25.618;2024-03-02T08:39:54;26.65;;;14.35;;
74415;SDS011;62850;42.428;25.618;2024-03-02T08:42:20;28.50;;;12.98;;
74415;SDS011;62850;42.428;25.618;2024-03-02T08:44:46;29.30;;;13.07;;
74415;SDS011;62850;42.428;25.618;2024-03-02T08:47:11;28.40;;;12.82;;
74415;SDS011;62850;42.428;25.618;2024-03-02T08:49:37;28.83;;;13.10;;
74415;SDS011;62850;42.428;25.618;2024-03-02T08:52:02;23.23;;;12.95;;
74415;SDS011;62850;42.428;25.618;2024-03-02T08:54:28;31.35;;;15.13;;
74415;SDS011;62850;42.428;25.618;2024-03-02T08:56:53;29.35;;;15.55;;
74415;SDS011;62850;42.428;25.618;2024-03-02T08:59:18;32.72;;;15.00;;
74415;SDS011;62850;42.428;25.618;2024-03-02T09:01:45;28.23;;;14.00;;
74415;SDS011;62850;42.428;25.618;2024-03-02T09:04:11;26.38;;;13.00;;
74415;SDS011;62850;42.428;25.618;2024-03-02T09:06:36;30.83;;;14.20;;
74415;SDS011;62850;42.428;25.618;2024-03-02T09:09:02;29.30;;;14.27;;
74415;SDS011;62850;42.428;25.618;2024-03-02T09:11:27;33.25;;;13.23;;
74415;SDS011;62850;42.428;25.618;2024-03-02T09:13:53;30.90;;;13.60;;
74415;SDS011;62850;42.428;25.618;2024-03-02T09:16:20;26.70;;;12.15;;
74415;SDS011;62850;42.428;25.618;2024-03-02T09:18:46;29.70;;;13.13;;
74415;SDS011;62850;42.428;25.618;2024-03-02T09:21:12;27.52;;;12.32;;
74415;SDS011;62850;42.428;25.618;2024-03-02T09:23:37;29.20;;;13.73;;
74415;SDS011;62850;42.428;25.618;2024-03-02T09:26:05;23.75;;;13.23;;
74415;SDS011;62850;42.428;25.618;2024-03-02T09:28:30;26.02;;;12.85;;
74415;SDS011;62850;42.428;25.618;2024-03-02T09:30:56;31.15;;;13.52;;
74415;SDS011;62850;42.428;25.618;2024-03-02T09:33:21;25.10;;;12.98;;
74415;SDS011;62850;42.428;25.618;2024-03-02T09:35:47;29.63;;;13.50;;
74415;SDS011;62850;42.428;25.618;2024-03-02T09:38:13;29.45;;;13.35;;
74415;SDS011;62850;42.428;25.618;2024-03-02T09:40:39;29.27;;;13.60;;
74415;SDS011;62850;42.428;25.618;2024-03-02T09:43:07;29.25;;;13.65;;
74415;SDS011;62850;42.428;25.618;2024-03-02T09:45:32;27.95;;;13.23;;
74415;SDS011;62850;42.428;25.618;2024-03-02T09:47:58;27.00;;;12.98;;
74415;SDS011;62850;42.428;25.618;2024-03-02T09:50:24;31.67;;;14.38;;
74415;SDS011;62850;42.428;25.618;2024-03-02T09:52:50;28.38;;;13.90;;
74415;SDS011;62850;42.428;25.618;2024-03-02T09:55:16;26.20;;;14.27;;
74415;SDS011;62850;42.428;25.618;2024-03-02T09:57:43;30.15;;;13.43;;
74415;SDS011;62850;42.428;25.618;2024-03-02T10:00:08;28.13;;;14.70;;
74415;SDS011;62850;42.428;25.618;2024-03-02T10:02:39;28.60;;;14.30;;
74415;SDS011;62850;42.428;25.618;2024-03-02T10:05:06;30.02;;;14.05;;
74415;SDS011;62850;42.428;25.618;2024-03-02T10:07:32;27.48;;;13.43;;
74415;SDS011;62850;42.428;25.618;2024-03-02T10:09:57;28.98;;;14.73;;
74415;SDS011;62850;42.428;25.618;2024-03-02T10:12:24;27.17;;;13.48;;
74415;SDS011;62850;42.428;25.618;2024-03-02T10:14:49;24.48;;;14.68;;
74415;SDS011;62850;42.428;25.618;2024-03-02T10:17:30;27.13;;;13.25;;
74415;SDS011;62850;42.428;25.618;2024-03-02T10:19:56;23.92;;;12.60;;
74415;SDS011;62850;42.428;25.618;2024-03-02T10:22:22;29.40;;;13.63;;
74415;SDS011;62850;42.428;25.618;2024-03-02T10:24:48;27.58;;;14.23;;
74415;SDS011;62850;42.428;25.618;2024-03-02T10:27:15;31.30;;;13.23;;
74415;SDS011;62850;42.428;25.618;2024-03-02T10:29:52;26.88;;;13.80;;
74415;SDS011;62850;42.428;25.618;2024-03-02T10:32:17;25.38;;;12.98;;
74415;SDS011;62850;42.428;25.618;2024-03-02T10:34:44;28.38;;;12.88;;
74415;SDS011;62850;42.428;25.618;2024-03-02T10:37:12;22.75;;;13.50;;
74415;SDS011;62850;42.428;25.618;2024-03-02T10:39:38;27.05;;;12.38;;
74415;SDS011;62850;42.428;25.618;2024-03-02T10:42:05;25.88;;;11.68;;
74415;SDS011;62850;42.428;25.618;2024-03-02T10:44:31;24.13;;;12.18;;
74415;SDS011;62850;42.428;25.618;2024-03-02T10:47:00;27.20;;;11.52;;
74415;SDS011;62850;42.428;25.618;2024-03-02T10:49:30;21.95;;;11.85;;
74415;SDS011;62850;42.428;25.618;2024-03-02T10:51:59;27.00;;;11.57;;
74415;SDS011;62850;42.428;25.618;2024-03-02T10:54:25;29.42;;;13.35;;
74415;SDS011;62850;42.428;25.618;2024-03-02T10:57:01;30.58;;;14.52;;
74415;SDS011;62850;42.428;25.618;2024-03-02T10:59:31;26.70;;;12.57;;
74415;SDS011;62850;42.428;25.618;2024-03-02T11:01:59;26.20;;;13.77;;
74415;SDS011;62850;42.428;25.618;2024-03-02T11:04:26;24.35;;;11.35;;
74415;SDS011;62850;42.428;25.618;2024-03-02T11:07:14;25.33;;;13.07;;
74415;SDS011;62850;42.428;25.618;2024-03-02T11:09:40;28.08;;;12.52;;
74415;SDS011;62850;42.428;25.618;2024-03-02T11:14:51;24.73;;;11.65;;
74415;SDS011;62850;42.428;25.618;2024-03-02T11:17:19;23.13;;;10.90;;
74415;SDS011;62850;42.428;25.618;2024-03-02T11:19:45;22.15;;;12.27;;
74415;SDS011;62850;42.428;25.618;2024-03-02T11:22:12;22.33;;;11.40;;
74415;SDS011;62850;42.428;25.618;2024-03-02T11:24:38;25.70;;;12.70;;
74415;SDS011;62850;42.428;25.618;2024-03-02T11:27:04;26.08;;;12.32;;
74415;SDS011;62850;42.428;25.618;2024-03-02T11:32:04;23.27;;;12.60;;
74415;SDS011;62850;42.428;25.618;2024-03-02T11:34:50;25.13;;;11.93;;
74415;SDS011;62850;42.428;25.618;2024-03-02T11:37:17;28.63;;;12.05;;
74415;SDS011;62850;42.428;25.618;2024-03-02T11:39:45;22.98;;;12.98;;
74415;SDS011;62850;42.428;25.618;2024-03-02T11:42:12;24.13;;;12.77;;
74415;SDS011;62850;42.428;25.618;2024-03-02T11:44:50;26.98;;;13.13;;
74415;SDS011;62850;42.428;25.618;2024-03-02T11:47:16;21.35;;;12.10;;
74415;SDS011;62850;42.428;25.618;2024-03-02T11:49:45;27.45;;;12.23;;
74415;SDS011;62850;42.428;25.618;2024-03-02T11:52:14;23.45;;;11.40;;
74415;SDS011;62850;42.428;25.618;2024-03-02T11:54:42;27.13;;;12.20;;
74415;SDS011;62850;42.428;25.618;2024-03-02T11:57:12;25.15;;;12.95;;
74415;SDS011;62850;42.428;25.618;2024-03-02T11:59:39;24.67;;;12.73;;
74415;SDS011;62850;42.428;25.618;2024-03-02T12:02:05;30.52;;;14.73;;
74415;SDS011;62850;42.428;25.618;2024-03-02T12:04:31;25.98;;;13.60;;
74415;SDS011;62850;42.428;25.618;2024-03-02T12:06:58;33.75;;;14.75;;
74415;SDS011;62850;42.428;25.618;2024-03-02T12:09:25;28.90;;;14.95;;
74415;SDS011;62850;42.428;25.618;2024-03-02T12:14:36;31.73;;;15.23;;
74415;SDS011;62850;42.428;25.618;2024-03-02T12:17:03;27.48;;;15.68;;
74415;SDS011;62850;42.428;25.618;2024-03-02T12:19:30;41.25;;;19.20;;
74415;SDS011;62850;42.428;25.618;2024-03-02T12:21:56;36.13;;;16.85;;
74415;SDS011;62850;42.428;25.618;2024-03-02T12:24:23;28.70;;;14.25;;
74415;SDS011;62850;42.428;25.618;2024-03-02T12:26:49;29.00;;;14.98;;
74415;SDS011;62850;42.428;25.618;2024-03-02T12:29:15;25.67;;;13.80;;
74415;SDS011;62850;42.428;25.618;2024-03-02T12:31:44;29.00;;;14.48;;
74415;SDS011;62850;42.428;25.618;2024-03-02T12:34:13;33.38;;;15.43;;
74415;SDS011;62850;42.428;25.618;2024-03-02T12:36:40;28.27;;;15.45;;
74415;SDS011;62850;42.428;25.618;2024-03-02T12:39:07;30.50;;;14.77;;
74415;SDS011;62850;42.428;25.618;2024-03-02T12:41:35;31.08;;;15.23;;
74415;SDS011;62850;42.428;25.618;2024-03-02T12:44:02;28.08;;;15.05;;
74415;SDS011;62850;42.428;25.618;2024-03-02T12:46:28;32.22;;;14.98;;
74415;SDS011;62850;42.428;25.618;2024-03-02T12:48:54;32.05;;;16.35;;
74415;SDS011;62850;42.428;25.618;2024-03-02T12:51:19;30.50;;;15.63;;
74415;SDS011;62850;42.428;25.618;2024-03-02T12:53:45;35.15;;;15.57;;
74415;SDS011;62850;42.428;25.618;2024-03-02T12:56:11;29.83;;;14.57;;
74415;SDS011;62850;42.428;25.618;2024-03-02T12:58:39;28.00;;;14.15;;
74415;SDS011;62850;42.428;25.618;2024-03-02T13:01:08;26.20;;;13.95;;
74415;SDS011;62850;42.428;25.618;2024-03-02T13:03:38;29.58;;;14.30;;
74415;SDS011;62850;42.428;25.618;2024-03-02T13:06:04;29.58;;;15.32;;
74415;SDS011;62850;42.428;25.618;2024-03-02T13:08:31;32.70;;;14.60;;
74415;SDS011;62850;42.428;25.618;2024-03-02T13:10:57;28.95;;;15.68;;
74415;SDS011;62850;42.428;25.618;2024-03-02T13:13:22;28.90;;;14.95;;
74415;SDS011;62850;42.428;25.618;2024-03-02T13:15:48;29.42;;;15.68;;
74415;SDS011;62850;42.428;25.618;2024-03-02T13:18:13;29.77;;;13.95;;
74415;SDS011;62850;42.428;25.618;2024-03-02T13:20:39;25.25;;;13.77;;
74415;SDS011;62850;42.428;25.618;2024-03-02T13:23:05;28.65;;;15.40;;
74415;SDS011;62850;42.428;25.618;2024-03-02T13:25:31;29.67;;;14.73;;
74415;SDS011;62850;42.428;25.618;2024-03-02T13:27:57;34.83;;;16.83;;
74415;SDS011;62850;42.428;25.618;2024-03-02T13:30:23;30.52;;;15.77;;
74415;SDS011;62850;42.428;25.618;2024-03-02T13:32:48;32.00;;;14.00;;
74415;SDS011;62850;42.428;25.618;2024-03-02T13:35:14;33.65;;;15.45;;
74415;SDS011;62850;42.428;25.618;2024-03-02T13:37:39;33.53;;;17.40;;
74415;SDS011;62850;42.428;25.618;2024-03-02T13:40:05;29.25;;;15.20;;
74415;SDS011;62850;42.428;25.618;2024-03-02T13:42:31;29.23;;;14.93;;
74415;SDS011;62850;42.428;25.618;2024-03-02T13:44:57;29.65;;;14.90;;
74415;SDS011;62850;42.428;25.618;2024-03-02T13:47:22;27.73;;;15.30;;
74415;SDS011;62850;42.428;25.618;2024-03-02T13:49:48;30.73;;;14.48;;
74415;SDS011;62850;42.428;25.618;2024-03-02T13:52:14;31.25;;;15.45;;
74415;SDS011;62850;42.428;25.618;2024-03-02T13:54:42;29.73;;;16.50;;
74415;SDS011;62850;42.428;25.618;2024-03-02T13:57:11;30.00;;;15.68;;
74415;SDS011;62850;42.428;25.618;2024-03-02T13:59:37;28.40;;;15.05;;
74415;SDS011;62850;42.428;25.618;2024-03-02T14:02:03;31.38;;;16.33;;
74415;SDS011;62850;42.428;25.618;2024-03-02T14:04:30;27.70;;;15.88;;
74415;SDS011;62850;42.428;25.618;2024-03-02T14:06:57;32.53;;;15.70;;
74415;SDS011;62850;42.428;25.618;2024-03-02T14:09:22;29.45;;;15.25;;
74415;SDS011;62850;42.428;25.618;2024-03-02T14:11:49;29.63;;;15.40;;
74415;SDS011;62850;42.428;25.618;2024-03-02T14:14:15;29.92;;;15.93;;
74415;SDS011;62850;42.428;25.618;2024-03-02T14:16:41;31.52;;;16.98;;